Time;durP1;ratioP1;P1;durP2;ratioP2;P2;SDS_P1;SDS_P2;PMS_P1;PMS_P2;Temp;Humidity;BMP_temperature;BMP_pressure;BME280_temperature;BME280_humidity;BME280_pressure;Samples;Min_cycle;Max_cycle;Signal;HPM_P1;HPM_P2
2023/05/06 00:00:46;;;;;;;16.30;7.53;;;10.60;99.90;;;;;;5011275;28;20040;-47
2023/05/06 00:03:12;;;;;;;17.50;7.87;;;10.60;99.90;;;;;;5011981;28;20026;-47
2023/05/06 00:05:37;;;;;;;21.10;9.37;;;10.60;99.90;;;;;;5011390;28;20128;-48
2023/05/06 00:08:04;;;;;;;18.30;8.23;;;10.60;99.90;;;;;;5011571;28;20018;-48
2023/05/06 00:10:30;;;;;;;19.17;7.47;;;10.60;99.90;;;;;;5011082;28;20037;-46
2023/05/06 00:12:56;;;;;;;18.40;7.50;;;10.60;99.90;;;;;;5011405;28;20475;-47
2023/05/06 00:15:21;;;;;;;16.13;7.50;;;10.50;99.90;;;;;;5011654;28;20037;-47
2023/05/06 00:17:47;;;;;;;21.07;8.10;;;10.60;99.90;;;;;;5011506;28;20029;-48
2023/05/06 00:20:13;;;;;;;18.07;7.67;;;10.60;99.90;;;;;;5011271;28;20061;-47
2023/05/06 00:22:39;;;;;;;19.47;8.30;;;10.60;99.90;;;;;;5011025;28;20030;-47
2023/05/06 00:25:05;;;;;;;19.03;8.70;;;10.50;99.90;;;;;;5011290;28;20490;-48
2023/05/06 00:27:32;;;;;;;21.50;9.27;;;10.50;99.90;;;;;;5011319;28;20048;-48
2023/05/06 00:29:57;;;;;;;21.23;8.93;;;10.50;99.90;;;;;;5011261;28;20033;-47
2023/05/06 00:32:23;;;;;;;20.93;9.30;;;10.50;99.90;;;;;;5010990;28;20492;-48
2023/05/06 00:34:50;;;;;;;22.03;9.17;;;10.50;99.90;;;;;;5011564;28;20030;-47
2023/05/06 00:37:16;;;;;;;23.10;8.97;;;10.60;99.90;;;;;;4993804;28;20022;-47
2023/05/06 00:39:41;;;;;;;25.80;10.63;;;10.60;99.90;;;;;;5011416;28;20459;-48
2023/05/06 00:42:07;;;;;;;23.53;10.03;;;10.60;99.90;;;;;;5010621;28;20030;-46
2023/05/06 00:44:33;;;;;;;25.80;10.10;;;10.70;99.90;;;;;;5009528;28;20041;-47
2023/05/06 00:47:00;;;;;;;23.70;9.20;;;10.70;99.90;;;;;;5011229;28;20034;-49
2023/05/06 00:49:27;;;;;;;23.93;10.10;;;10.70;99.90;;;;;;5009904;28;20037;-47
2023/05/06 00:51:55;;;;;;;28.43;10.97;;;10.70;99.90;;;;;;5010549;28;20109;-48
2023/05/06 00:54:23;;;;;;;25.83;10.40;;;10.70;99.90;;;;;;5011134;28;20022;-50
2023/05/06 00:56:49;;;;;;;31.33;10.87;;;10.70;99.90;;;;;;5010967;28;20021;-47
2023/05/06 00:59:15;;;;;;;26.00;12.07;;;10.60;99.90;;;;;;5010993;28;20096;-48
2023/05/06 01:01:40;;;;;;;24.03;11.27;;;10.60;99.90;;;;;;5009215;28;20029;-49
2023/05/06 01:04:07;;;;;;;25.23;10.80;;;10.60;99.90;;;;;;5009822;28;20140;-50
2023/05/06 01:07:19;;;;;;;29.23;11.60;;;10.50;99.90;;;;;;5010759;28;20406;-48
2023/05/06 01:09:59;;;;;;;32.00;12.10;;;10.50;99.90;;;;;;5000995;28;20560;-48
2023/05/06 01:12:42;;;;;;;;;;;10.50;99.90;;;;;;4993397;28;20128;-49
2023/05/06 01:15:16;;;;;;;22.50;9.67;;;10.40;99.90;;;;;;5010876;28;20000;-50
2023/05/06 01:17:45;;;;;;;25.20;9.37;;;10.50;99.90;;;;;;5010783;28;20405;-49
2023/05/06 01:20:11;;;;;;;25.55;10.77;;;10.40;99.90;;;;;;5010525;28;20056;-46
2023/05/06 01:22:38;;;;;;;25.50;10.63;;;10.50;99.90;;;;;;5010503;28;20037;-46
2023/05/06 01:25:04;;;;;;;29.17;11.20;;;10.50;99.90;;;;;;5010538;28;20026;-47
2023/05/06 01:27:30;;;;;;;25.27;10.67;;;10.50;99.90;;;;;;5010537;28;20045;-47
2023/05/06 01:29:57;;;;;;;24.83;9.67;;;10.40;99.90;;;;;;5010513;28;20321;-47
2023/05/06 01:32:35;;;;;;;27.00;10.67;;;10.30;99.90;;;;;;4992647;28;20026;-47
2023/05/06 01:35:20;;;;;;;28.07;10.37;;;10.30;99.90;;;;;;5009398;28;20467;-48
2023/05/06 01:38:03;;;;;;;26.60;10.70;;;10.30;99.90;;;;;;5010318;28;20532;-51
2023/05/06 01:40:31;;;;;;;25.17;9.50;;;10.30;99.90;;;;;;5010052;28;20494;-48
2023/05/06 01:43:01;;;;;;;28.33;11.10;;;10.30;99.90;;;;;;5010605;28;20512;-49
2023/05/06 01:45:29;;;;;;;25.17;9.83;;;10.30;99.90;;;;;;5010478;28;20030;-47
2023/05/06 01:47:57;;;;;;;28.20;10.60;;;10.20;99.90;;;;;;5009340;28;20034;-47
2023/05/06 01:50:23;;;;;;;32.67;11.20;;;10.20;99.90;;;;;;5009937;28;20030;-46
2023/05/06 01:52:59;;;;;;;26.87;11.40;;;10.10;99.90;;;;;;5010090;28;20125;-50
2023/05/06 01:55:25;;;;;;;26.33;10.20;;;10.10;99.90;;;;;;5011964;28;20460;-47
2023/05/06 01:57:54;;;;;;;30.67;11.73;;;10.10;99.90;;;;;;5013884;28;20050;-49
2023/05/06 02:00:19;;;;;;;29.27;11.37;;;10.10;99.90;;;;;;5013995;28;20179;-46
2023/05/06 02:02:46;;;;;;;28.70;10.87;;;10.10;99.90;;;;;;5013582;28;20026;-49
2023/05/06 02:05:12;;;;;;;27.70;10.87;;;10.10;99.90;;;;;;5012372;28;20040;-49
2023/05/06 02:07:43;;;;;;;26.47;9.93;;;10.10;99.90;;;;;;5012556;28;20394;-47
2023/05/06 02:10:10;;;;;;;26.23;10.67;;;10.10;99.90;;;;;;5012134;28;20053;-48
2023/05/06 02:12:38;;;;;;;23.35;10.30;;;10.10;99.90;;;;;;5012263;28;20057;-48
2023/05/06 02:15:04;;;;;;;33.50;11.70;;;10.10;99.90;;;;;;5013783;28;20046;-47
2023/05/06 02:17:30;;;;;;;25.40;10.00;;;10.10;99.90;;;;;;5012451;28;20253;-47
2023/05/06 02:19:56;;;;;;;25.67;9.90;;;10.10;99.90;;;;;;5012334;28;20040;-49
2023/05/06 02:22:22;;;;;;;27.50;9.83;;;10.10;99.90;;;;;;5011815;28;20026;-48
2023/05/06 02:24:48;;;;;;;30.40;11.07;;;10.10;99.90;;;;;;5012276;28;20547;-48
2023/05/06 02:27:14;;;;;;;31.00;11.67;;;10.10;99.90;;;;;;5013360;28;20041;-47
2023/05/06 02:29:39;;;;;;;28.00;10.63;;;10.10;99.90;;;;;;5011985;28;20479;-49
2023/05/06 02:32:05;;;;;;;33.20;12.07;;;10.00;99.90;;;;;;5012825;28;20044;-47
2023/05/06 02:34:31;;;;;;;29.47;11.07;;;10.10;99.90;;;;;;5013400;28;20053;-47
2023/05/06 02:36:58;;;;;;;28.80;11.40;;;10.10;99.90;;;;;;5011980;28;20037;-46
2023/05/06 02:39:23;;;;;;;27.70;10.10;;;10.10;99.90;;;;;;5013209;28;20414;-48
2023/05/06 02:41:49;;;;;;;25.73;10.83;;;10.10;99.90;;;;;;5012738;28;20026;-47
2023/05/06 02:44:17;;;;;;;27.27;11.63;;;10.10;99.90;;;;;;5013175;28;20479;-46
2023/05/06 02:46:43;;;;;;;29.00;11.60;;;10.10;99.90;;;;;;5013192;28;20032;-47
2023/05/06 02:49:08;;;;;;;25.07;10.03;;;10.10;99.90;;;;;;5011584;28;20076;-46
2023/05/06 02:51:35;;;;;;;23.83;10.03;;;10.10;99.90;;;;;;5011130;28;20447;-47
2023/05/06 02:54:00;;;;;;;30.57;11.33;;;10.10;99.90;;;;;;5011717;28;20030;-46
2023/05/06 02:56:26;;;;;;;29.37;10.73;;;10.00;99.90;;;;;;5012783;28;20505;-48
2023/05/06 02:58:52;;;;;;;26.80;9.70;;;10.00;99.90;;;;;;4995170;28;20026;-47
2023/05/06 03:01:18;;;;;;;28.57;10.80;;;10.00;99.90;;;;;;5011075;28;20049;-46
2023/05/06 03:03:44;;;;;;;30.23;11.40;;;10.00;99.90;;;;;;5012765;28;20025;-47
2023/05/06 03:06:10;;;;;;;31.53;12.30;;;10.10;99.90;;;;;;5011170;28;20040;-47
2023/05/06 03:08:35;;;;;;;30.20;10.97;;;10.10;99.90;;;;;;5012213;28;20465;-47
2023/05/06 03:11:02;;;;;;;34.67;11.47;;;10.20;99.90;;;;;;5010951;28;20026;-47
2023/05/06 03:13:28;;;;;;;31.00;10.63;;;10.20;99.90;;;;;;5011204;28;20025;-47
2023/05/06 03:15:54;;;;;;;36.47;12.70;;;10.20;99.90;;;;;;5011244;28;20029;-47
2023/05/06 03:18:20;;;;;;;30.10;11.73;;;10.30;99.90;;;;;;5011181;28;20053;-47
2023/05/06 03:20:47;;;;;;;29.57;11.07;;;10.20;99.90;;;;;;5010817;28;20058;-47
2023/05/06 03:23:14;;;;;;;26.87;10.60;;;10.10;99.90;;;;;;5011107;28;20033;-46
2023/05/06 03:25:41;;;;;;;23.23;9.90;;;10.10;99.90;;;;;;5011329;28;20095;-46
2023/05/06 03:28:07;;;;;;;31.90;11.87;;;10.10;99.90;;;;;;5011464;28;20034;-46
2023/05/06 03:30:35;;;;;;;30.43;11.33;;;10.10;99.90;;;;;;5011008;28;20030;-46
2023/05/06 03:33:04;;;;;;;;;;;10.10;99.90;;;;;;5012293;28;20109;-49
2023/05/06 03:35:32;;;;;;;29.43;10.97;;;10.20;99.90;;;;;;5011585;28;19913;-51
2023/05/06 03:37:59;;;;;;;31.70;11.33;;;10.20;99.90;;;;;;5011370;28;20030;-49
2023/05/06 03:40:31;;;;;;;34.00;11.63;;;10.20;99.90;;;;;;5010709;28;20180;-48
2023/05/06 03:42:57;;;;;;;33.10;11.80;;;10.20;99.90;;;;;;5010981;28;20501;-48
2023/05/06 03:45:25;;;;;;;35.67;12.77;;;10.20;99.90;;;;;;5011136;28;20103;-50
2023/05/06 03:47:52;;;;;;;34.33;11.35;;;10.20;99.90;;;;;;5010930;28;20104;-52
2023/05/06 03:50:19;;;;;;;33.17;10.80;;;10.20;99.90;;;;;;5010514;28;20026;-47
2023/05/06 03:52:45;;;;;;;33.70;12.33;;;10.20;99.90;;;;;;5010434;28;20032;-48
2023/05/06 03:55:11;;;;;;;32.40;12.67;;;10.20;99.90;;;;;;5011946;28;20482;-50
2023/05/06 03:57:38;;;;;;;33.13;12.87;;;10.10;99.90;;;;;;5010748;28;20030;-50
2023/05/06 04:00:05;;;;;;;31.63;12.43;;;10.10;99.90;;;;;;5010470;28;20029;-51
2023/05/06 04:02:42;;;;;;;30.67;12.43;;;10.10;99.90;;;;;;5011638;28;20379;-52
2023/05/06 04:05:09;;;;;;;33.73;13.10;;;10.10;99.90;;;;;;5010317;28;20037;-47
2023/05/06 04:07:35;;;;;;;37.53;13.53;;;10.10;99.90;;;;;;5010298;28;20034;-47
2023/05/06 04:10:00;;;;;;;30.57;12.77;;;10.10;99.90;;;;;;5010152;28;20172;-47
2023/05/06 04:12:26;;;;;;;32.50;12.20;;;10.10;99.90;;;;;;5010144;28;20025;-47
2023/05/06 04:14:52;;;;;;;35.27;13.70;;;10.10;99.90;;;;;;5010227;28;20072;-49
2023/05/06 04:17:18;;;;;;;33.97;14.23;;;10.20;99.90;;;;;;5011692;28;20447;-48
2023/05/06 04:19:46;;;;;;;37.93;13.17;;;10.20;99.90;;;;;;5009382;28;20117;-48
2023/05/06 04:22:12;;;;;;;36.53;13.13;;;10.20;99.90;;;;;;5009566;28;20030;-47
2023/05/06 04:24:40;;;;;;;32.63;12.97;;;10.20;99.90;;;;;;5010183;28;20282;-47
2023/05/06 04:27:06;;;;;;;36.60;13.63;;;10.30;99.90;;;;;;5010059;28;20038;-49
2023/05/06 04:29:32;;;;;;;35.83;13.10;;;10.30;99.90;;;;;;5009947;28;20593;-49
2023/05/06 04:32:01;;;;;;;35.63;13.40;;;10.20;99.90;;;;;;5009488;28;20390;-47
2023/05/06 04:34:30;;;;;;;36.80;13.13;;;10.30;99.90;;;;;;5010002;28;20422;-49
2023/05/06 04:36:59;;;;;;;30.40;11.90;;;10.30;99.90;;;;;;5009964;28;20076;-48
2023/05/06 04:39:38;;;;;;;34.07;12.87;;;10.40;99.90;;;;;;5009886;28;20524;-48
2023/05/06 04:42:04;;;;;;;36.20;12.37;;;10.40;99.90;;;;;;5009337;28;20038;-48
2023/05/06 04:44:37;;;;;;;31.50;12.73;;;10.50;99.90;;;;;;5010139;28;20367;-47
2023/05/06 04:47:07;;;;;;;33.27;12.90;;;10.50;99.90;;;;;;5009545;28;20053;-51
2023/05/06 04:49:32;;;;;;;30.00;12.80;;;10.50;99.90;;;;;;5009569;28;20034;-47
2023/05/06 04:52:00;;;;;;;32.97;13.37;;;10.60;99.90;;;;;;5008969;28;20072;-46
2023/05/06 04:54:26;;;;;;;34.43;13.53;;;10.60;99.90;;;;;;5009552;28;20038;-49
2023/05/06 04:56:52;;;;;;;28.60;11.83;;;10.60;99.90;;;;;;5009662;28;20113;-47
2023/05/06 04:59:19;;;;;;;30.73;11.57;;;10.60;99.90;;;;;;5009512;28;20394;-48
2023/05/06 05:01:46;;;;;;;33.23;13.63;;;10.60;99.90;;;;;;5008843;28;20034;-47
2023/05/06 05:04:11;;;;;;;32.47;12.47;;;10.70;99.90;;;;;;5009534;28;20026;-46
2023/05/06 05:06:38;;;;;;;32.93;12.00;;;10.90;99.90;;;;;;5009522;28;20041;-48
2023/05/06 05:09:04;;;;;;;28.20;11.57;;;11.10;99.90;;;;;;5010714;28;20109;-49
2023/05/06 05:11:30;;;;;;;31.10;11.90;;;11.20;99.90;;;;;;5008931;28;20052;-48
2023/05/06 05:13:57;;;;;;;33.83;12.80;;;11.30;99.90;;;;;;5009399;28;20033;-49
2023/05/06 05:16:23;;;;;;;27.17;11.17;;;11.40;99.90;;;;;;5009355;28;20445;-47
2023/05/06 05:18:49;;;;;;;29.20;11.43;;;11.40;99.90;;;;;;5009369;28;20025;-46
2023/05/06 05:21:20;;;;;;;28.67;12.00;;;11.50;99.90;;;;;;5008891;28;20045;-47
2023/05/06 05:23:46;;;;;;;28.57;12.27;;;11.50;99.90;;;;;;5009668;28;20532;-46
2023/05/06 05:26:12;;;;;;;28.53;12.23;;;11.50;99.90;;;;;;5009450;28;20030;-48
2023/05/06 05:28:40;;;;;;;27.07;11.37;;;11.50;99.90;;;;;;5009266;28;20073;-47
2023/05/06 05:31:05;;;;;;;30.47;12.70;;;11.60;99.90;;;;;;5011638;28;20030;-46
2023/05/06 05:33:34;;;;;;;34.50;13.85;;;11.60;99.90;;;;;;5013301;28;20084;-47
2023/05/06 05:36:03;;;;;;;31.53;12.47;;;11.70;99.90;;;;;;5013314;28;20092;-48
2023/05/06 05:38:29;;;;;;;29.47;12.17;;;11.80;99.90;;;;;;5013084;28;20411;-46
2023/05/06 05:40:56;;;;;;;28.63;12.80;;;11.90;99.90;;;;;;5012623;28;20026;-49
2023/05/06 05:43:24;;;;;;;29.07;12.33;;;12.00;99.90;;;;;;5012828;28;20096;-45
2023/05/06 05:45:51;;;;;;;27.65;12.07;;;12.10;99.90;;;;;;5012833;28;20025;-51
2023/05/06 05:48:16;;;;;;;31.30;12.57;;;12.20;99.90;;;;;;5012866;28;20402;-50
2023/05/06 05:50:42;;;;;;;27.95;12.57;;;12.20;99.90;;;;;;5013791;28;20079;-47
2023/05/06 05:53:08;;;;;;;30.55;12.85;;;12.30;99.90;;;;;;5014126;28;20649;-48
2023/05/06 05:55:36;;;;;;;28.85;12.63;;;12.40;99.90;;;;;;5012883;28;20513;-51
2023/05/06 05:58:02;;;;;;;26.23;11.77;;;12.50;99.90;;;;;;5012607;28;20022;-47
2023/05/06 06:00:29;;;;;;;25.95;11.68;;;12.50;99.90;;;;;;5012359;28;20394;-48
2023/05/06 06:03:01;;;;;;;28.65;12.38;;;12.60;99.90;;;;;;5012527;28;20026;-49
2023/05/06 06:05:27;;;;;;;28.80;13.77;;;12.70;99.90;;;;;;5012419;28;20037;-46
2023/05/06 06:07:52;;;;;;;24.48;12.07;;;12.90;99.90;;;;;;5014034;28;20061;-50
2023/05/06 06:10:18;;;;;;;28.35;12.98;;;13.00;99.90;;;;;;5012322;28;20062;-47
2023/05/06 06:12:45;;;;;;;25.25;11.85;;;13.10;99.90;;;;;;5012371;28;20064;-48
2023/05/06 06:15:14;;;;;;;23.33;11.13;;;13.20;99.90;;;;;;5012644;28;20562;-47
2023/05/06 06:17:41;;;;;;;23.75;10.95;;;13.30;99.90;;;;;;5012484;28;20030;-45
2023/05/06 06:20:08;;;;;;;24.15;11.73;;;13.40;99.90;;;;;;5012036;28;20486;-49
2023/05/06 06:22:34;;;;;;;26.95;11.25;;;13.60;99.90;;;;;;5012136;28;20041;-47
2023/05/06 06:25:00;;;;;;;23.67;10.93;;;13.70;99.90;;;;;;5012357;28;20026;-50
2023/05/06 06:27:25;;;;;;;23.45;11.02;;;13.80;99.90;;;;;;5012280;28;20060;-49
2023/05/06 06:29:51;;;;;;;21.95;10.23;;;13.70;99.90;;;;;;5013546;28;20026;-50
2023/05/06 06:32:18;;;;;;;20.30;9.25;;;13.90;99.90;;;;;;5011607;28;20061;-50
2023/05/06 06:34:44;;;;;;;21.25;10.18;;;13.90;99.90;;;;;;5013433;28;20038;-48
2023/05/06 06:37:10;;;;;;;20.23;10.35;;;13.90;99.90;;;;;;5012105;28;20092;-47
2023/05/06 06:39:36;;;;;;;18.80;10.18;;;14.00;99.90;;;;;;5013368;28;20069;-48
2023/05/06 06:42:05;;;;;;;18.17;8.68;;;14.10;99.90;;;;;;5011857;28;20069;-50
2023/05/06 06:44:37;;;;;;;18.83;9.30;;;14.10;99.90;;;;;;5012109;28;20049;-49
2023/05/06 06:47:03;;;;;;;17.38;8.63;;;14.30;99.90;;;;;;5013652;28;20030;-49
2023/05/06 06:49:29;;;;;;;19.10;10.13;;;14.50;99.90;;;;;;5013254;28;20108;-48
2023/05/06 06:51:56;;;;;;;19.23;9.43;;;14.70;99.90;;;;;;5012959;28;20030;-51
2023/05/06 06:54:22;;;;;;;16.52;8.48;;;15.00;99.90;;;;;;5013203;28;20026;-48
2023/05/06 06:56:48;;;;;;;17.35;8.38;;;15.20;99.90;;;;;;5013176;28;20022;-48
2023/05/06 06:59:14;;;;;;;17.08;8.13;;;15.50;99.90;;;;;;5013029;28;20038;-46
2023/05/06 07:01:41;;;;;;;17.48;8.65;;;15.70;99.90;;;;;;5012453;28;20510;-48
2023/05/06 07:04:06;;;;;;;13.88;7.30;;;16.20;99.90;;;;;;5012801;28;20116;-49
2023/05/06 07:06:32;;;;;;;15.00;7.45;;;16.70;99.90;;;;;;5012706;28;20266;-50
2023/05/06 07:08:58;;;;;;;14.23;7.13;;;17.10;99.90;;;;;;5012589;28;20084;-46
2023/05/06 07:11:24;;;;;;;14.52;7.30;;;17.30;99.90;;;;;;5012481;28;20041;-47
2023/05/06 07:13:49;;;;;;;13.48;7.15;;;17.30;99.90;;;;;;5012812;28;20212;-48
2023/05/06 07:16:15;;;;;;;13.57;6.60;;;17.20;99.90;;;;;;5012506;28;20037;-46
2023/05/06 07:18:41;;;;;;;14.38;7.45;;;17.30;99.90;;;;;;5012500;28;20037;-49
2023/05/06 07:21:06;;;;;;;12.05;6.78;;;17.20;99.90;;;;;;5012098;28;20029;-47
2023/05/06 07:23:32;;;;;;;11.98;5.90;;;17.10;99.90;;;;;;5012665;28;20026;-49
2023/05/06 07:25:58;;;;;;;12.60;6.55;;;17.20;99.90;;;;;;5012801;28;20029;-48
2023/05/06 07:28:24;;;;;;;13.27;7.35;;;17.10;99.90;;;;;;5012602;28;20025;-47
2023/05/06 07:30:51;;;;;;;11.32;6.15;;;16.90;99.90;;;;;;5012134;28;20038;-48
2023/05/06 07:33:17;;;;;;;12.65;6.30;;;16.70;99.90;;;;;;5012305;28;20037;-51
2023/05/06 07:35:42;;;;;;;13.05;7.40;;;16.70;99.90;;;;;;5012379;28;20034;-51
2023/05/06 07:38:08;;;;;;;9.82;5.65;;;16.80;99.90;;;;;;5012449;28;20564;-52
2023/05/06 07:40:34;;;;;;;9.88;6.05;;;17.20;99.90;;;;;;5012013;28;20121;-49
2023/05/06 07:43:01;;;;;;;11.90;6.00;;;17.20;99.90;;;;;;5012157;28;20026;-49
2023/05/06 07:45:27;;;;;;;11.45;6.00;;;16.90;99.90;;;;;;5012270;28;20030;-51
2023/05/06 07:47:53;;;;;;;9.13;5.35;;;16.80;99.90;;;;;;5011869;28;20029;-50
2023/05/06 07:50:19;;;;;;;11.45;6.00;;;16.80;99.90;;;;;;5011718;28;20034;-48
2023/05/06 07:52:44;;;;;;;11.27;6.05;;;16.90;99.90;;;;;;5011308;28;20066;-47
2023/05/06 07:55:10;;;;;;;11.18;5.70;;;16.90;99.90;;;;;;5011856;28;20026;-52
2023/05/06 07:57:36;;;;;;;12.95;6.85;;;17.10;99.90;;;;;;5011891;28;20490;-50
2023/05/06 08:00:02;;;;;;;11.05;5.85;;;17.20;99.90;;;;;;5011510;28;20033;-50
2023/05/06 08:02:42;;;;;;;11.27;5.95;;;17.10;99.90;;;;;;5011590;28;20038;-47
2023/05/06 08:05:09;;;;;;;7.60;4.63;;;17.20;99.90;;;;;;5011684;28;20072;-47
2023/05/06 08:07:36;;;;;;;8.10;4.05;;;17.30;99.90;;;;;;5011894;28;20061;-48
2023/05/06 08:10:02;;;;;;;7.40;3.75;;;17.40;99.90;;;;;;5011389;28;20490;-48
2023/05/06 08:12:27;;;;;;;7.25;3.88;;;17.60;99.90;;;;;;5011599;28;20030;-48
2023/05/06 08:14:54;;;;;;;6.38;3.55;;;17.60;99.90;;;;;;5011985;28;20099;-48
2023/05/06 08:17:20;;;;;;;7.05;3.67;;;17.50;99.90;;;;;;5011574;28;20037;-48
2023/05/06 08:19:45;;;;;;;6.20;3.75;;;17.40;99.90;;;;;;5011443;28;20037;-48
2023/05/06 08:22:11;;;;;;;8.35;4.22;;;17.50;99.90;;;;;;5009731;28;20415;-48
2023/05/06 08:24:37;;;;;;;9.52;4.20;;;17.50;99.90;;;;;;5011447;28;20037;-47
2023/05/06 08:27:03;;;;;;;6.30;3.70;;;17.40;99.90;;;;;;5011335;28;20156;-47
2023/05/06 08:29:29;;;;;;;6.72;3.83;;;17.40;99.90;;;;;;5011200;28;20030;-47
2023/05/06 08:31:54;;;;;;;7.88;3.95;;;17.50;99.90;;;;;;5010846;28;20025;-47
2023/05/06 08:34:21;;;;;;;7.47;3.63;;;17.60;99.90;;;;;;5011205;28;20034;-48
2023/05/06 08:36:47;;;;;;;6.07;3.58;;;17.50;99.90;;;;;;5011280;28;20038;-47
2023/05/06 08:39:13;;;;;;;7.40;3.78;;;17.60;99.90;;;;;;5011207;28;20034;-48
2023/05/06 08:41:40;;;;;;;6.03;3.40;;;17.60;99.90;;;;;;5009582;28;20084;-52
2023/05/06 08:44:07;;;;;;;7.20;3.47;;;17.60;99.90;;;;;;5011266;28;20026;-47
2023/05/06 08:46:33;;;;;;;7.68;3.75;;;17.80;99.90;;;;;;5011006;28;20037;-47
2023/05/06 08:48:59;;;;;;;5.28;3.17;;;17.70;99.90;;;;;;5011036;28;20049;-49
2023/05/06 08:51:28;;;;;;;7.50;3.22;;;17.90;99.90;;;;;;5010852;28;20030;-47
2023/05/06 08:53:54;;;;;;;4.68;2.83;;;17.90;99.90;;;;;;5011196;28;20037;-47
2023/05/06 08:56:23;;;;;;;4.97;2.45;;;18.10;99.90;;;;;;5011032;28;20030;-48
2023/05/06 08:58:50;;;;;;;10.15;3.30;;;18.30;99.90;;;;;;5011007;28;20034;-51
2023/05/06 09:01:16;;;;;;;6.25;3.13;;;18.60;99.90;;;;;;5010373;28;20038;-48
2023/05/06 09:03:42;;;;;;;4.18;2.30;;;18.70;99.90;;;;;;5011089;28;20102;-49
2023/05/06 09:06:09;;;;;;;7.25;3.88;;;18.90;99.90;;;;;;5010196;28;20030;-49
2023/05/06 09:08:35;;;;;;;4.90;2.50;;;19.00;99.90;;;;;;5011009;28;20022;-47
2023/05/06 09:11:01;;;;;;;5.65;2.53;;;18.90;99.90;;;;;;5010452;28;20018;-47
2023/05/06 09:13:26;;;;;;;3.90;2.00;;;19.00;99.90;;;;;;5011262;28;20037;-47
2023/05/06 09:15:53;;;;;;;4.78;2.30;;;19.00;99.90;;;;;;5010707;28;20477;-50
2023/05/06 09:18:19;;;;;;;4.10;1.67;;;19.00;99.90;;;;;;5010997;28;20030;-48
2023/05/06 09:20:47;;;;;;;2.42;1.23;;;19.20;99.90;;;;;;5010675;28;20565;-49
2023/05/06 09:23:15;;;;;;;4.32;1.60;;;19.40;99.90;;;;;;5010767;28;20034;-47
2023/05/06 09:25:44;;;;;;;5.13;2.42;;;19.60;99.90;;;;;;5011019;28;20441;-49
2023/05/06 09:28:11;;;;;;;4.25;1.90;;;19.60;99.90;;;;;;5010858;28;20474;-47
2023/05/06 09:30:43;;;;;;;4.15;2.03;;;19.60;99.90;;;;;;5010152;28;20045;-48
2023/05/06 09:33:09;;;;;;;2.50;1.38;;;19.50;99.90;;;;;;5010821;28;20053;-50
2023/05/06 09:35:43;;;;;;;3.78;1.83;;;19.60;99.90;;;;;;5010934;28;20034;-47
2023/05/06 09:38:09;;;;;;;3.10;1.67;;;19.60;99.90;;;;;;5010884;28;20473;-47
2023/05/06 09:40:35;;;;;;;3.78;2.10;;;19.60;99.90;;;;;;5010466;28;20443;-47
2023/05/06 09:43:02;;;;;;;4.05;1.67;;;19.60;99.90;;;;;;5010905;28;20616;-47
2023/05/06 09:45:28;;;;;;;3.25;1.73;;;19.70;99.90;;;;;;5010959;28;20082;-48
2023/05/06 09:47:54;;;;;;;2.45;1.20;;;19.80;99.90;;;;;;5010891;28;20040;-47
2023/05/06 09:50:21;;;;;;;2.58;1.38;;;19.90;99.90;;;;;;5010526;28;20037;-47
2023/05/06 09:52:48;;;;;;;2.95;1.60;;;20.10;99.90;;;;;;5010561;28;20034;-47
2023/05/06 09:55:16;;;;;;;4.20;1.73;;;20.20;99.90;;;;;;5010684;28;20105;-47
2023/05/06 09:57:43;;;;;;;3.20;1.83;;;20.30;99.90;;;;;;5010602;28;20471;-51
2023/05/06 10:00:13;;;;;;;2.88;1.40;;;20.50;99.90;;;;;;5010389;28;20034;-46
2023/05/06 10:02:40;;;;;;;3.20;1.50;;;20.70;99.90;;;;;;5010350;28;20025;-50
2023/05/06 10:05:08;;;;;;;2.10;1.10;;;20.70;99.90;;;;;;5010451;28;20037;-50
2023/05/06 10:07:35;;;;;;;1.98;1.20;;;20.80;99.80;;;;;;5010571;28;20030;-50
2023/05/06 10:10:07;;;;;;;5.13;2.53;;;20.80;99.90;;;;;;5010175;28;20065;-52
2023/05/06 10:12:34;;;;;;;5.50;2.08;;;21.00;99.90;;;;;;5010173;28;20096;-49
2023/05/06 10:15:00;;;;;;;2.78;1.33;;;21.20;97.90;;;;;;5010386;28;20026;-48
2023/05/06 10:17:27;;;;;;;2.25;1.38;;;21.20;98.70;;;;;;5012082;28;20382;-50
2023/05/06 10:19:58;;;;;;;2.08;1.13;;;21.30;98.30;;;;;;5014005;28;20037;-47
2023/05/06 10:22:39;;;;;;;1.50;0.70;;;21.50;97.30;;;;;;5013354;28;20034;-47
2023/05/06 10:25:33;;;;;;;1.10;0.85;;;21.50;95.70;;;;;;5013814;28;20092;-47
2023/05/06 10:28:00;;;;;;;1.33;0.70;;;21.20;97.40;;;;;;5013824;28;20030;-50
2023/05/06 10:30:27;;;;;;;1.85;0.93;;;21.50;95.60;;;;;;5013099;28;20084;-51
2023/05/06 10:32:55;;;;;;;1.65;0.60;;;21.80;95.40;;;;;;5013576;28;20065;-47
2023/05/06 10:35:42;;;;;;;1.67;0.88;;;21.90;94.80;;;;;;5013470;28;20118;-51
2023/05/06 10:38:37;;;;;;;3.58;1.02;;;22.00;94.50;;;;;;5012155;28;20566;-49
2023/05/06 10:41:03;;;;;;;1.90;0.90;;;22.40;94.60;;;;;;5005510;28;20042;-49
2023/05/06 10:43:31;;;;;;;2.50;1.00;;;22.50;93.60;;;;;;5013182;28;20033;-49
2023/05/06 10:46:07;;;;;;;2.33;1.13;;;22.70;94.10;;;;;;5013592;28;20438;-47
2023/05/06 10:48:38;;;;;;;2.25;1.10;;;22.70;94.80;;;;;;5013587;28;20076;-47
2023/05/06 10:51:16;;;;;;;1.60;1.10;;;22.60;92.80;;;;;;5012882;28;20026;-47
2023/05/06 10:54:08;;;;;;;1.63;1.00;;;22.50;92.60;;;;;;5011864;28;20108;-47
2023/05/06 10:56:39;;;;;;;2.08;0.90;;;22.30;93.80;;;;;;5013010;28;20109;-47
2023/05/06 10:59:08;;;;;;;2.45;1.20;;;21.80;93.90;;;;;;5011540;28;20033;-48
2023/05/06 11:01:36;;;;;;;4.85;2.10;;;21.40;93.60;;;;;;5012356;28;20037;-46
2023/05/06 11:04:10;;;;;;;1.13;0.70;;;21.30;93.10;;;;;;5013397;28;20152;-46
2023/05/06 11:06:46;;;;;;;2.47;1.02;;;21.40;93.70;;;;;;5013086;28;20044;-46
2023/05/06 11:09:19;;;;;;;1.83;0.80;;;21.40;93.20;;;;;;5012877;28;20033;-51
2023/05/06 11:12:04;;;;;;;2.97;1.02;;;21.40;92.50;;;;;;5012497;28;20030;-47
2023/05/06 11:14:34;;;;;;;2.63;1.00;;;21.70;91.90;;;;;;5013280;28;20026;-48
2023/05/06 11:17:08;;;;;;;1.70;0.70;;;21.90;91.10;;;;;;5012834;28;20436;-47
2023/05/06 11:19:36;;;;;;;2.08;1.10;;;21.90;91.90;;;;;;5012731;28;20040;-47
2023/05/06 11:22:04;;;;;;;2.55;0.90;;;21.80;91.30;;;;;;5012404;28;20375;-47
2023/05/06 11:24:40;;;;;;;2.53;0.80;;;21.70;92.50;;;;;;5012587;28;20068;-46
2023/05/06 11:27:08;;;;;;;2.72;1.33;;;21.60;92.80;;;;;;5012407;28;20041;-48
2023/05/06 11:29:34;;;;;;;2.67;0.88;;;21.60;92.30;;;;;;5012182;28;20029;-49
2023/05/06 11:31:59;;;;;;;1.38;0.52;;;21.30;93.50;;;;;;5012080;28;20333;-50
2023/05/06 11:34:28;;;;;;;1.60;0.80;;;21.00;93.40;;;;;;5012381;28;20033;-49
2023/05/06 11:36:57;;;;;;;1.92;1.00;;;21.10;91.90;;;;;;5012299;28;20030;-48
2023/05/06 11:39:29;;;;;;;2.50;1.10;;;21.30;93.20;;;;;;5012323;28;20037;-46
2023/05/06 11:41:56;;;;;;;2.83;1.08;;;21.40;93.10;;;;;;5011632;28;20038;-46
2023/05/06 11:44:39;;;;;;;1.77;0.88;;;21.70;92.00;;;;;;5012412;28;20033;-46
2023/05/06 11:47:07;;;;;;;1.85;0.82;;;21.60;92.50;;;;;;5012424;28;20038;-47
2023/05/06 11:49:41;;;;;;;1.43;0.60;;;21.50;92.30;;;;;;5012162;28;20044;-48
2023/05/06 11:52:08;;;;;;;1.55;0.80;;;21.60;91.20;;;;;;5011617;28;20108;-48
2023/05/06 11:54:37;;;;;;;0.95;0.70;;;21.80;91.40;;;;;;5012043;28;20497;-47
2023/05/06 11:57:02;;;;;;;1.08;0.63;;;21.90;90.50;;;;;;5011910;28;20030;-50
2023/05/06 11:59:32;;;;;;;3.00;1.20;;;22.10;87.10;;;;;;5012082;28;20030;-49
2023/05/06 12:02:01;;;;;;;2.60;1.10;;;22.30;90.60;;;;;;5011534;28;20037;-47
2023/05/06 12:04:27;;;;;;;1.90;1.17;;;22.40;90.60;;;;;;5011892;28;20536;-47
2023/05/06 12:06:54;;;;;;;2.45;1.08;;;22.40;92.10;;;;;;5011630;28;20049;-47
2023/05/06 12:09:21;;;;;;;2.90;1.20;;;22.60;90.80;;;;;;5011848;28;20034;-49
2023/05/06 12:11:47;;;;;;;2.05;1.10;;;22.70;90.40;;;;;;5011421;28;20044;-46
2023/05/06 12:14:13;;;;;;;1.08;0.82;;;22.60;90.50;;;;;;5010815;28;20026;-46
2023/05/06 12:16:40;;;;;;;2.28;0.90;;;22.30;91.90;;;;;;5011602;28;20029;-47
2023/05/06 12:19:06;;;;;;;1.80;0.88;;;22.20;91.10;;;;;;5011775;28;20037;-47
2023/05/06 12:21:36;;;;;;;2.75;1.05;;;22.40;88.80;;;;;;5011074;28;20033;-47
2023/05/06 12:24:02;;;;;;;1.90;1.00;;;22.50;85.40;;;;;;5011843;28;20542;-46
2023/05/06 12:26:40;;;;;;;1.75;0.88;;;22.50;83.80;;;;;;5011571;28;20129;-47
2023/05/06 12:29:09;;;;;;;2.72;0.98;;;22.60;83.20;;;;;;5011650;28;20080;-47
2023/05/06 12:31:35;;;;;;;1.52;1.00;;;22.60;82.20;;;;;;5011207;28;20025;-46
2023/05/06 12:34:02;;;;;;;3.65;1.10;;;22.60;87.30;;;;;;5011547;28;20298;-48
2023/05/06 12:36:28;;;;;;;0.65;0.47;;;22.60;88.20;;;;;;5011643;28;20030;-48
2023/05/06 12:38:56;;;;;;;4.50;1.80;;;22.60;86.10;;;;;;5011529;28;20022;-46